createdAt,value
2023-04-23T00:00:58.093Z,23.06
2023-04-23T00:03:24.854Z,22.98
2023-04-23T00:05:51.648Z,22.96
2023-04-23T00:08:18.205Z,23.05
2023-04-23T00:10:44.761Z,23.05
2023-04-23T00:13:11.288Z,22.93
2023-04-23T00:15:37.820Z,22.93
2023-04-23T00:18:04.255Z,22.97
2023-04-23T00:20:30.785Z,22.98
2023-04-23T00:22:57.381Z,23.00
2023-04-23T00:25:23.897Z,23.03
2023-04-23T00:27:50.495Z,22.96
2023-04-23T00:30:16.955Z,23.02
2023-04-23T00:32:43.467Z,22.94
2023-04-23T00:35:10.132Z,23.03
2023-04-23T00:37:36.688Z,22.98
2023-04-23T00:40:03.214Z,22.96
2023-04-23T00:42:29.693Z,23.08
2023-04-23T00:44:56.239Z,22.94
2023-04-23T00:47:22.772Z,22.94
2023-04-23T00:49:49.355Z,22.94
2023-04-23T00:52:15.884Z,22.96
2023-04-23T00:54:42.673Z,23.03
2023-04-23T00:57:09.425Z,22.95
2023-04-23T00:59:35.984Z,22.91
2023-04-23T01:02:02.605Z,22.98
2023-04-23T01:04:29.140Z,23.02
2023-04-23T01:06:55.766Z,22.91
2023-04-23T01:09:22.382Z,23.04
2023-04-23T01:11:48.931Z,22.96
2023-04-23T01:14:15.459Z,22.99
2023-04-23T01:16:41.963Z,23.06
2023-04-23T01:19:08.405Z,22.98
2023-04-23T01:21:34.913Z,22.99
2023-04-23T01:24:01.449Z,22.96
2023-04-23T01:26:27.947Z,23.05
2023-04-23T01:28:54.466Z,22.89
2023-04-23T01:31:20.981Z,22.89
2023-04-23T01:33:47.609Z,23.01
2023-04-23T01:36:14.032Z,23.02
2023-04-23T01:38:40.616Z,22.92
2023-04-23T01:41:07.130Z,23.07
2023-04-23T01:43:33.559Z,23.08
2023-04-23T01:46:00.113Z,23.06
2023-04-23T01:48:26.619Z,23.10
2023-04-23T01:50:53.272Z,23.11
2023-04-23T01:53:19.737Z,23.02
2023-04-23T01:55:46.235Z,23.08
2023-04-23T01:58:12.844Z,23.04
2023-04-23T02:00:39.316Z,23.01
2023-04-23T02:03:06.329Z,23.00
2023-04-23T02:05:33.002Z,22.97
2023-04-23T02:07:59.678Z,23.08
2023-04-23T02:10:26.197Z,23.08
2023-04-23T02:12:52.724Z,23.04
2023-04-23T02:15:19.272Z,23.01
2023-04-23T02:17:45.741Z,22.93
2023-04-23T02:20:12.317Z,23.01
2023-04-23T02:22:38.843Z,23.00
2023-04-23T02:25:05.251Z,22.88
2023-04-23T02:27:31.771Z,22.88
2023-04-23T02:29:58.425Z,22.96
2023-04-23T02:32:24.968Z,22.92
2023-04-23T02:34:51.566Z,22.96
2023-04-23T02:37:18.078Z,23.00
2023-04-23T02:39:44.593Z,22.92
2023-04-23T02:42:11.192Z,22.93
2023-04-23T02:44:37.745Z,23.03
2023-04-23T02:47:04.351Z,23.10
2023-04-23T02:49:30.947Z,23.12
2023-04-23T02:51:57.559Z,23.10
2023-04-23T02:54:24.114Z,23.04
2023-04-23T02:56:50.704Z,23.00
2023-04-23T02:59:17.233Z,23.05
2023-04-23T03:01:43.767Z,22.99
2023-04-23T03:04:10.634Z,22.90
2023-04-23T03:06:37.314Z,22.95
2023-04-23T03:09:03.828Z,22.93
2023-04-23T03:11:30.327Z,22.99
2023-04-23T03:13:56.875Z,22.99
2023-04-23T03:16:23.497Z,23.12
2023-04-23T03:18:50.099Z,22.93
2023-04-23T03:21:16.665Z,22.93
2023-04-23T03:23:43.210Z,22.94
2023-04-23T03:26:09.700Z,22.94
2023-04-23T03:28:36.177Z,22.88
2023-04-23T03:31:02.798Z,22.91
2023-04-23T03:33:29.329Z,22.95
2023-04-23T03:35:55.813Z,22.99
2023-04-23T03:38:22.421Z,22.91
2023-04-23T03:40:48.843Z,22.97
2023-04-23T03:43:15.325Z,22.87
2023-04-23T03:45:41.942Z,22.93
2023-04-23T03:48:08.530Z,22.85
2023-04-23T03:50:35.038Z,22.86
2023-04-23T03:53:01.585Z,22.95
2023-04-23T03:55:28.021Z,22.93
2023-04-23T03:57:54.606Z,22.95
2023-04-23T04:00:21.140Z,22.99
2023-04-23T04:02:47.774Z,22.93
2023-04-23T04:05:14.627Z,22.86
2023-04-23T04:07:41.165Z,22.78
2023-04-23T04:10:07.737Z,22.87
2023-04-23T04:12:34.258Z,22.84
2023-04-23T04:15:00.770Z,22.82
2023-04-23T04:17:27.276Z,22.81
2023-04-23T04:19:53.820Z,22.87
2023-04-23T04:22:20.297Z,22.88
2023-04-23T04:24:46.835Z,22.83
2023-04-23T04:27:13.332Z,22.79
2023-04-23T04:29:39.879Z,22.85
2023-04-23T04:32:06.312Z,22.91
2023-04-23T04:34:32.756Z,22.84
2023-04-23T04:36:59.215Z,22.88
2023-04-23T04:39:25.766Z,22.82
2023-04-23T04:41:52.196Z,22.81
2023-04-23T04:44:18.763Z,22.83
2023-04-23T04:46:45.346Z,22.89
2023-04-23T04:49:11.837Z,22.99
2023-04-23T04:51:38.319Z,22.93
2023-04-23T04:54:04.821Z,22.92
2023-04-23T04:56:31.382Z,22.91
2023-04-23T04:58:57.897Z,22.88
2023-04-23T05:01:24.499Z,22.96
2023-04-23T05:03:51.182Z,22.87
2023-04-23T05:06:17.828Z,22.83
2023-04-23T05:08:44.351Z,22.91
2023-04-23T05:11:10.869Z,22.88
2023-04-23T05:13:37.378Z,22.86
2023-04-23T05:16:03.850Z,22.84
2023-04-23T05:18:30.412Z,22.84
2023-04-23T05:20:57.026Z,22.93
2023-04-23T05:23:23.545Z,22.98
2023-04-23T05:25:50.441Z,22.91
2023-04-23T05:28:17.888Z,22.84
2023-04-23T05:30:44.365Z,22.87
2023-04-23T05:33:10.853Z,22.86
2023-04-23T05:35:37.299Z,22.94
2023-04-23T05:38:06.675Z,22.99
2023-04-23T05:40:35.059Z,22.91
2023-04-23T05:43:01.505Z,22.91
2023-04-23T05:45:27.945Z,22.93
2023-04-23T05:47:54.403Z,22.94
2023-04-23T05:50:20.921Z,22.95
2023-04-23T05:52:47.380Z,22.92
2023-04-23T05:55:13.864Z,22.90
2023-04-23T05:57:40.313Z,22.92
2023-04-23T06:00:06.756Z,22.98
2023-04-23T06:02:33.286Z,23.09
2023-04-23T06:04:59.872Z,23.03
2023-04-23T06:07:26.650Z,23.12
2023-04-23T06:09:53.159Z,23.10
2023-04-23T06:12:19.584Z,23.25
2023-04-23T06:14:46.065Z,23.31
2023-04-23T06:17:13.474Z,23.22
2023-04-23T06:19:40.141Z,23.18
2023-04-23T06:22:06.581Z,23.14
2023-04-23T06:24:33.080Z,23.21
2023-04-23T06:26:59.610Z,23.20
2023-04-23T06:29:26.093Z,23.39
2023-04-23T06:31:52.663Z,23.36
2023-04-23T06:34:19.179Z,23.39
2023-04-23T06:36:45.675Z,23.37
2023-04-23T06:39:12.176Z,23.35
2023-04-23T06:41:38.632Z,23.36
2023-04-23T06:44:05.136Z,23.25
2023-04-23T06:46:31.579Z,23.49
2023-04-23T06:48:58.103Z,23.34
2023-04-23T06:51:24.610Z,23.32
2023-04-23T06:53:51.107Z,23.36
2023-04-23T06:56:17.605Z,23.44
2023-04-23T06:58:44.026Z,23.43
2023-04-23T07:01:10.487Z,23.47
2023-04-23T07:03:36.992Z,23.44
2023-04-23T07:06:03.514Z,23.42
2023-04-23T07:08:30.015Z,23.14
2023-04-23T07:10:56.490Z,22.92
2023-04-23T07:13:22.910Z,22.35
2023-04-23T07:15:49.424Z,22.74
2023-04-23T07:18:15.960Z,22.91
2023-04-23T07:20:42.411Z,23.08
2023-04-23T07:23:08.880Z,23.15
2023-04-23T07:25:35.405Z,23.05
2023-04-23T07:28:01.898Z,23.07
2023-04-23T07:30:28.362Z,23.15
2023-04-23T07:32:54.917Z,23.24
2023-04-23T07:35:21.482Z,23.23
2023-04-23T07:37:47.986Z,23.29
2023-04-23T07:40:14.797Z,23.35
2023-04-23T07:42:41.276Z,23.43
2023-04-23T07:45:08.106Z,23.39
2023-04-23T07:47:34.646Z,23.45
2023-04-23T07:50:01.235Z,23.49
2023-04-23T07:52:27.818Z,23.51
2023-04-23T07:54:54.336Z,23.56
2023-04-23T07:57:20.826Z,23.53
2023-04-23T07:59:47.246Z,23.52
2023-04-23T08:02:13.729Z,23.58
2023-04-23T08:04:40.435Z,23.56
2023-04-23T08:07:07.015Z,23.60
2023-04-23T08:09:33.437Z,23.65
2023-04-23T08:11:59.969Z,23.66
2023-04-23T08:14:26.485Z,23.62
2023-04-23T08:16:53.007Z,23.64
2023-04-23T08:19:19.478Z,23.64
2023-04-23T08:21:45.948Z,23.63
2023-04-23T08:24:12.452Z,23.53
2023-04-23T08:26:38.909Z,23.60
2023-04-23T08:29:05.460Z,23.47
2023-04-23T08:31:32.016Z,23.55
2023-04-23T08:33:58.537Z,23.55
2023-04-23T08:36:24.963Z,23.63
2023-04-23T08:38:51.429Z,23.60
2023-04-23T08:41:17.969Z,23.67
2023-04-23T08:43:44.486Z,23.59
2023-04-23T08:46:11.039Z,23.56
2023-04-23T08:48:37.502Z,23.65
2023-04-23T08:51:03.935Z,23.66
2023-04-23T08:53:30.340Z,23.66
2023-04-23T08:55:56.804Z,23.65
2023-04-23T08:58:23.229Z,23.63
2023-04-23T09:00:49.721Z,23.59
2023-04-23T09:03:16.193Z,23.64
2023-04-23T09:05:42.684Z,23.60
2023-04-23T09:08:09.132Z,23.58
2023-04-23T09:10:35.629Z,23.64
2023-04-23T09:13:02.047Z,23.63
2023-04-23T09:15:28.480Z,23.71
2023-04-23T09:17:54.944Z,23.60
2023-04-23T09:20:24.001Z,23.59
2023-04-23T09:22:50.469Z,23.57
2023-04-23T09:25:17.011Z,23.64
2023-04-23T09:27:43.546Z,23.64
2023-04-23T09:30:10.080Z,23.64
2023-04-23T09:32:36.564Z,23.75
2023-04-23T09:35:03.091Z,23.75
2023-04-23T09:37:29.628Z,23.72
2023-04-23T09:39:56.077Z,23.66
2023-04-23T09:42:22.596Z,23.70
2023-04-23T09:44:49.070Z,23.68
2023-04-23T09:47:15.610Z,23.72
2023-04-23T09:49:42.340Z,23.79
2023-04-23T09:52:09.185Z,23.70
2023-04-23T09:54:35.712Z,23.73
2023-04-23T09:57:02.216Z,23.74
2023-04-23T09:59:46.153Z,23.78
2023-04-23T10:02:15.130Z,23.72
2023-04-23T10:04:41.903Z,23.83
2023-04-23T10:07:18.906Z,23.71
2023-04-23T10:09:46.474Z,23.66
2023-04-23T10:12:33.329Z,23.69
2023-04-23T10:14:59.429Z,23.75
2023-04-23T10:17:25.940Z,23.81
2023-04-23T10:19:52.406Z,23.81
2023-04-23T10:22:20.042Z,23.82
2023-04-23T10:24:47.912Z,23.78
2023-04-23T10:27:27.015Z,23.90
2023-04-23T10:29:59.693Z,23.93
2023-04-23T10:32:26.273Z,24.05
2023-04-23T10:34:52.714Z,23.93
2023-04-23T10:37:19.254Z,24.00
2023-04-23T10:39:46.092Z,23.86
2023-04-23T10:42:12.775Z,23.99
2023-04-23T10:47:08.796Z,24.18
2023-04-23T10:49:35.424Z,23.96
2023-04-23T10:54:31.791Z,24.02
2023-04-23T10:56:58.332Z,24.04
2023-04-23T10:59:24.847Z,23.94
2023-04-23T11:01:51.616Z,24.04
2023-04-23T11:04:18.792Z,23.99
2023-04-23T11:06:45.629Z,23.97
2023-04-23T11:09:12.365Z,23.96
2023-04-23T11:11:38.868Z,23.90
2023-04-23T11:14:05.359Z,23.79
2023-04-23T11:16:32.304Z,23.82
2023-04-23T11:18:58.920Z,23.92
2023-04-23T11:21:25.346Z,23.83
2023-04-23T11:23:51.866Z,23.92
2023-04-23T11:26:18.371Z,23.97
2023-04-23T11:28:44.950Z,23.92
2023-04-23T11:31:11.591Z,23.80
2023-04-23T11:33:38.297Z,23.92
2023-04-23T11:36:04.798Z,23.77
2023-04-23T11:38:31.338Z,23.84
2023-04-23T11:40:57.828Z,23.71
2023-04-23T11:43:24.308Z,23.72
2023-04-23T11:45:50.842Z,23.71
2023-04-23T11:48:17.642Z,23.61
2023-04-23T11:50:44.619Z,23.70
2023-04-23T11:53:11.389Z,23.88
2023-04-23T11:55:37.840Z,23.81
2023-04-23T11:58:04.377Z,23.68
2023-04-23T12:00:31.061Z,23.64
2023-04-23T12:02:57.953Z,23.62
2023-04-23T12:05:24.981Z,23.71
2023-04-23T12:07:51.665Z,23.64
2023-04-23T12:10:18.283Z,23.69
2023-04-23T12:12:44.759Z,23.67
2023-04-23T12:15:11.272Z,23.67
2023-04-23T12:17:37.818Z,23.72
2023-04-23T12:20:04.252Z,23.75
2023-04-23T12:22:30.907Z,23.63
2023-04-23T12:24:57.612Z,23.71
2023-04-23T12:27:24.154Z,23.74
2023-04-23T12:29:50.656Z,23.81
2023-04-23T12:32:17.191Z,23.78
2023-04-23T12:34:43.921Z,23.90
2023-04-23T12:37:10.470Z,23.93
2023-04-23T12:39:36.930Z,23.94
2023-04-23T12:42:03.402Z,23.97
2023-04-23T12:44:29.916Z,23.84
2023-04-23T12:46:57.685Z,23.70
2023-04-23T12:49:24.505Z,23.72
2023-04-23T12:51:50.920Z,23.72
2023-04-23T12:54:17.408Z,23.84
2023-04-23T12:56:43.912Z,23.67
2023-04-23T12:59:10.421Z,23.69
2023-04-23T13:01:37.032Z,23.85
2023-04-23T13:04:03.619Z,23.78
2023-04-23T13:06:30.240Z,23.69
2023-04-23T13:08:56.782Z,23.80
2023-04-23T13:11:23.202Z,23.77
2023-04-23T13:13:49.627Z,23.74
2023-04-23T13:16:16.229Z,23.84
2023-04-23T13:18:42.754Z,23.94
2023-04-23T13:21:09.257Z,23.98
2023-04-23T13:23:35.750Z,24.11
2023-04-23T13:26:02.205Z,23.90
2023-04-23T13:28:28.690Z,23.96
2023-04-23T13:30:55.112Z,23.99
2023-04-23T13:33:21.621Z,23.46
2023-04-23T13:35:48.098Z,23.47
2023-04-23T13:38:14.537Z,23.48
2023-04-23T13:40:41.053Z,23.50
2023-04-23T13:43:07.496Z,23.62
2023-04-23T13:45:34.080Z,23.47
2023-04-23T13:48:00.649Z,23.14
2023-04-23T13:50:27.229Z,23.01
2023-04-23T13:52:53.654Z,22.89
2023-04-23T13:55:20.072Z,22.94
2023-04-23T13:57:46.546Z,23.07
2023-04-23T14:00:13.085Z,22.93
2023-04-23T14:02:39.623Z,22.86
2023-04-23T14:05:06.169Z,22.82
2023-04-23T14:07:32.623Z,22.86
2023-04-23T14:09:59.099Z,22.49
2023-04-23T14:12:25.520Z,22.50
2023-04-23T14:14:51.987Z,22.55
2023-04-23T14:17:18.491Z,22.69
2023-04-23T14:19:44.982Z,22.72
2023-04-23T14:22:11.484Z,22.92
2023-04-23T14:24:37.981Z,22.96
2023-04-23T14:27:05.784Z,22.95
2023-04-23T14:29:32.528Z,22.79
2023-04-23T14:31:59.054Z,22.72
2023-04-23T14:34:25.587Z,22.87
2023-04-23T14:36:52.061Z,23.01
2023-04-23T14:39:18.532Z,23.13
2023-04-23T14:41:45.041Z,23.18
2023-04-23T14:44:11.525Z,23.25
2023-04-23T14:46:38.184Z,23.35
2023-04-23T14:49:04.798Z,23.35
2023-04-23T14:51:31.317Z,23.23
2023-04-23T14:53:57.875Z,23.63
2023-04-23T14:56:24.398Z,23.96
2023-04-23T14:58:50.921Z,24.33
2023-04-23T15:01:17.554Z,24.51
2023-04-23T15:06:11.209Z,24.66
2023-04-23T15:08:37.632Z,24.70
2023-04-23T15:11:04.127Z,24.17
2023-04-23T15:13:30.596Z,24.18
2023-04-23T15:15:57.129Z,24.18
2023-04-23T15:18:23.807Z,24.10
2023-04-23T15:20:50.309Z,23.98
2023-04-23T15:23:16.783Z,24.00
2023-04-23T15:25:43.274Z,23.96
2023-04-23T15:28:09.739Z,23.89
2023-04-23T15:30:36.185Z,23.73
2023-04-23T15:33:02.686Z,23.58
2023-04-23T15:35:29.238Z,23.65
2023-04-23T15:37:55.831Z,23.63
2023-04-23T15:40:22.347Z,23.54
2023-04-23T15:42:48.798Z,23.48
2023-04-23T15:45:15.231Z,23.50
2023-04-23T15:47:41.847Z,23.52
2023-04-23T15:50:09.741Z,23.47
2023-04-23T15:52:36.194Z,23.35
2023-04-23T15:55:02.890Z,23.44
2023-04-23T15:57:29.337Z,23.40
2023-04-23T15:59:55.841Z,22.94
2023-04-23T16:02:22.459Z,22.32
2023-04-23T16:04:49.070Z,21.80
2023-04-23T16:07:15.685Z,21.18
2023-04-23T16:09:42.497Z,21.16
2023-04-23T16:12:10.619Z,21.16
2023-04-23T16:14:37.294Z,21.14
2023-04-23T16:17:03.800Z,21.10
2023-04-23T16:19:30.257Z,21.15
2023-04-23T16:21:56.789Z,21.19
2023-04-23T16:24:26.291Z,21.27
2023-04-23T16:26:52.716Z,21.33
2023-04-23T16:29:22.513Z,21.32
2023-04-23T16:31:49.618Z,21.24
2023-04-23T16:34:16.185Z,21.42
2023-04-23T16:36:42.747Z,21.35
2023-04-23T16:39:11.729Z,21.27
2023-04-23T16:41:38.316Z,21.21
2023-04-23T16:44:04.986Z,21.25
2023-04-23T16:46:31.815Z,21.25
2023-04-23T16:48:58.500Z,21.16
2023-04-23T16:51:25.330Z,21.06
2023-04-23T16:53:51.894Z,21.03
2023-04-23T16:56:18.509Z,20.88
2023-04-23T16:58:44.931Z,20.92
2023-04-23T17:01:11.397Z,20.97
2023-04-23T17:03:38.002Z,20.96
2023-04-23T17:06:04.691Z,20.93
2023-04-23T17:08:31.201Z,21.04
2023-04-23T17:10:57.659Z,20.99
2023-04-23T17:13:24.173Z,20.95
2023-04-23T17:15:50.688Z,20.87
2023-04-23T17:18:17.320Z,20.86
2023-04-23T17:20:43.815Z,20.84
2023-04-23T17:23:10.327Z,20.91
2023-04-23T17:25:36.851Z,20.90
2023-04-23T17:28:03.297Z,20.84
2023-04-23T17:30:29.829Z,20.82
2023-04-23T17:32:56.396Z,20.67
2023-04-23T17:35:23.061Z,20.71
2023-04-23T17:37:49.519Z,20.68
2023-04-23T17:40:16.073Z,20.70
2023-04-23T17:42:42.740Z,20.71
2023-04-23T17:45:09.188Z,20.62
2023-04-23T17:47:35.768Z,20.53
2023-04-23T17:50:02.424Z,20.51
2023-04-23T17:52:29.129Z,20.51
2023-04-23T17:54:55.661Z,20.47
2023-04-23T17:57:22.160Z,20.45
2023-04-23T17:59:48.702Z,20.42
2023-04-23T18:02:15.179Z,20.36
2023-04-23T18:04:41.776Z,20.38
2023-04-23T18:07:08.311Z,20.30
2023-04-23T18:09:34.803Z,20.20
2023-04-23T18:12:01.279Z,20.26
2023-04-23T18:14:27.782Z,20.07
2023-04-23T18:16:54.462Z,20.07
2023-04-23T18:19:21.048Z,20.02
2023-04-23T18:21:47.581Z,20.08
2023-04-23T18:24:14.054Z,20.00
2023-04-23T18:26:40.515Z,20.01
2023-04-23T18:29:07.041Z,20.02
2023-04-23T18:31:33.756Z,20.14
2023-04-23T18:34:00.286Z,20.21
2023-04-23T18:36:26.838Z,20.18
2023-04-23T18:38:53.383Z,20.22
2023-04-23T18:41:19.930Z,20.19
2023-04-23T18:43:46.372Z,20.26
2023-04-23T18:46:12.974Z,20.26
2023-04-23T18:48:39.551Z,20.23
2023-04-23T18:51:06.201Z,20.26
2023-04-23T18:53:32.766Z,20.28
2023-04-23T18:55:59.248Z,20.20
2023-04-23T18:58:25.778Z,20.17
2023-04-23T19:00:54.295Z,20.20
2023-04-23T19:03:26.850Z,20.26
2023-04-23T19:05:54.071Z,20.23
2023-04-23T19:08:20.545Z,20.26
2023-04-23T19:10:47.077Z,20.31
2023-04-23T19:13:13.635Z,20.19
2023-04-23T19:15:40.132Z,20.18
2023-04-23T19:18:06.616Z,20.21
2023-04-23T19:20:33.117Z,20.19
2023-04-23T19:22:59.664Z,20.20
2023-04-23T19:25:26.152Z,20.32
2023-04-23T19:27:52.642Z,20.29
2023-04-23T19:30:19.101Z,20.24
2023-04-23T19:32:45.554Z,20.18
2023-04-23T19:35:12.090Z,20.09
2023-04-23T19:37:38.673Z,20.11
2023-04-23T19:40:05.239Z,20.13
2023-04-23T19:42:31.761Z,20.12
2023-04-23T19:44:58.358Z,20.07
2023-04-23T19:47:24.947Z,20.06
2023-04-23T19:49:51.494Z,20.01
2023-04-23T19:52:18.054Z,19.95
2023-04-23T19:54:44.624Z,20.02
2023-04-23T19:57:13.001Z,19.92
2023-04-23T19:59:39.579Z,19.98
2023-04-23T20:02:06.186Z,20.02
2023-04-23T20:04:32.759Z,20.09
2023-04-23T20:06:59.211Z,20.10
2023-04-23T20:09:25.785Z,20.01
2023-04-23T20:11:52.314Z,19.95
2023-04-23T20:14:19.674Z,19.89
2023-04-23T20:16:46.208Z,19.89
2023-04-23T20:19:12.807Z,19.98
2023-04-23T20:21:39.292Z,19.91
2023-04-23T20:24:05.818Z,19.90
2023-04-23T20:26:32.478Z,19.81
2023-04-23T20:28:58.998Z,20.45
2023-04-23T20:31:25.615Z,20.72
2023-04-23T20:33:52.141Z,20.45
2023-04-23T20:36:18.611Z,20.37
2023-04-23T20:38:46.192Z,20.31
2023-04-23T20:41:12.815Z,20.20
2023-04-23T20:43:42.277Z,20.14
2023-04-23T20:46:08.861Z,20.12
2023-04-23T20:48:35.511Z,20.17
2023-04-23T20:51:02.094Z,20.11
2023-04-23T20:53:28.623Z,20.06
2023-04-23T20:55:55.140Z,20.02
2023-04-23T20:58:21.632Z,19.95
2023-04-23T21:00:48.191Z,20.01
2023-04-23T21:03:14.928Z,19.98
2023-04-23T21:05:41.575Z,20.01
2023-04-23T21:08:08.090Z,19.88
2023-04-23T21:10:34.662Z,19.91
2023-04-23T21:13:01.253Z,19.91
2023-04-23T21:15:27.846Z,19.85
2023-04-23T21:17:54.312Z,19.84
2023-04-23T21:20:20.826Z,19.85
2023-04-23T21:22:47.321Z,19.87
2023-04-23T21:25:13.850Z,19.89
2023-04-23T21:27:40.319Z,19.83
2023-04-23T21:30:06.780Z,19.87
2023-04-23T21:32:33.293Z,19.92
2023-04-23T21:34:59.738Z,19.94
2023-04-23T21:37:26.251Z,20.01
2023-04-23T21:39:52.792Z,20.04
2023-04-23T21:42:19.246Z,20.00
2023-04-23T21:44:45.697Z,19.98
2023-04-23T21:47:12.328Z,19.93
2023-04-23T21:49:38.844Z,19.94
2023-04-23T21:52:05.288Z,19.88
2023-04-23T21:54:31.803Z,19.88
2023-04-23T21:56:58.380Z,19.88
2023-04-23T21:59:24.971Z,19.87
2023-04-23T22:01:51.520Z,19.82
2023-04-23T22:04:18.118Z,19.74
2023-04-23T22:06:47.689Z,19.83
2023-04-23T22:09:14.291Z,19.70
2023-04-23T22:11:44.174Z,19.72
2023-04-23T22:14:15.553Z,19.74
2023-04-23T22:16:42.131Z,19.60
2023-04-23T22:19:08.612Z,19.56
2023-04-23T22:21:35.117Z,19.69
2023-04-23T22:24:01.656Z,19.67
2023-04-23T22:26:28.138Z,19.56
2023-04-23T22:28:54.693Z,19.52
2023-04-23T22:31:21.112Z,19.53
2023-04-23T22:33:47.669Z,19.40
2023-04-23T22:36:14.152Z,19.39
2023-04-23T22:38:40.620Z,19.30
2023-04-23T22:41:07.122Z,19.39
2023-04-23T22:43:33.747Z,19.39
2023-04-23T22:46:00.256Z,19.27
2023-04-23T22:48:26.814Z,19.28
2023-04-23T22:50:53.207Z,19.35
2023-04-23T22:53:19.890Z,19.18
2023-04-23T22:55:46.502Z,19.13
2023-04-23T22:58:12.912Z,19.15
2023-04-23T23:00:39.475Z,19.14
2023-04-23T23:03:06.057Z,19.05
2023-04-23T23:05:32.653Z,19.04
2023-04-23T23:07:59.126Z,19.06
2023-04-23T23:10:25.610Z,19.15
2023-04-23T23:12:52.083Z,19.12
2023-04-23T23:15:18.601Z,19.03
2023-04-23T23:17:45.211Z,18.97
2023-04-23T23:20:11.708Z,19.03
2023-04-23T23:22:38.283Z,18.93
2023-04-23T23:25:04.736Z,19.08
2023-04-23T23:27:31.305Z,19.01
2023-04-23T23:29:57.767Z,19.06
2023-04-23T23:32:24.279Z,19.02
2023-04-23T23:34:50.735Z,18.94
2023-04-23T23:37:17.327Z,19.03
2023-04-23T23:39:44.062Z,18.87
2023-04-23T23:42:10.674Z,18.82
2023-04-23T23:44:37.291Z,18.92
2023-04-23T23:47:03.921Z,18.87
2023-04-23T23:49:30.670Z,18.91
2023-04-23T23:51:57.294Z,18.92
2023-04-23T23:54:23.837Z,18.85
2023-04-23T23:56:50.296Z,18.81
2023-04-23T23:59:16.809Z,18.72
